N458GU PHOG-PHTO
Flight info
| Callsign | N458GU |
|---|---|
| Flight time | 0h 26m |
| Altitude | 19000 |
| Route | ONOHI2 BARBY PARIS V15 ITO |
| Aircraft | A319/M-SDE3FGHIRWY/LB1 |
Departure
| Time | 2026-04-24 01:14 |
|---|---|
| Airport | Kahului International Airport (PHOG) |
Arrival
| Time | 2026-04-24 01:40 |
|---|---|
| Airport | Hilo International Airport (PHTO) |
| Time | Latitude | Longitude | Altitude | Speed | Heading |
|---|---|---|---|---|---|
| 2026-04-24 00:47 | 20.89489 | -156.43533 | 42 ft | 0 kts | 305° |
| 2026-04-24 00:52 | 20.89488 | -156.43533 | 42 ft | 0 kts | 305° |
| 2026-04-24 01:00 | 20.89488 | -156.43532 | 45 ft | 0 kts | 305° |
| 2026-04-24 01:04 | 20.89474 | -156.43510 | 47 ft | 4 kts | 302° |
| 2026-04-24 01:04 | 20.89460 | -156.43485 | 48 ft | 4 kts | 295° |
| 2026-04-24 01:04 | 20.89452 | -156.43458 | 47 ft | 4 kts | 265° |
| 2026-04-24 01:05 | 20.89458 | -156.43444 | 48 ft | 1 kts | 214° |
| 2026-04-24 01:10 | 20.89455 | -156.43446 | 47 ft | 5 kts | 210° |
| 2026-04-24 01:10 | 20.89360 | -156.43465 | 52 ft | 18 kts | 210° |
| 2026-04-24 01:10 | 20.89235 | -156.43554 | 56 ft | 25 kts | 216° |
| 2026-04-24 01:10 | 20.89085 | -156.43666 | 58 ft | 24 kts | 215° |
| 2026-04-24 01:11 | 20.89003 | -156.43701 | 58 ft | 15 kts | 162° |
| 2026-04-24 01:11 | 20.88991 | -156.43693 | 60 ft | 3 kts | 143° |
| 2026-04-24 01:11 | 20.88987 | -156.43690 | 61 ft | 0 kts | 144° |
| 2026-04-24 01:12 | 20.88966 | -156.43668 | 63 ft | 13 kts | 125° |
| 2026-04-24 01:12 | 20.88981 | -156.43582 | 62 ft | 0 kts | 36° |
| 2026-04-24 01:13 | 20.89000 | -156.43568 | 59 ft | 19 kts | 35° |
| 2026-04-24 01:13 | 20.89413 | -156.43260 | 49 ft | 120 kts | 35° |
| 2026-04-24 01:13 | 20.90245 | -156.42633 | 472 ft | 157 kts | 34° |
| 2026-04-24 01:14 | 20.91122 | -156.41905 | 1408 ft | 160 kts | 38° |
| 2026-04-24 01:14 | 20.92029 | -156.41158 | 2306 ft | 170 kts | 34° |
| 2026-04-24 01:14 | 20.93069 | -156.40453 | 3227 ft | 189 kts | 32° |
| 2026-04-24 01:14 | 20.94294 | -156.39615 | 3929 ft | 232 kts | 40° |
| 2026-04-24 01:15 | 20.95192 | -156.38079 | 4840 ft | 260 kts | 79° |
| 2026-04-24 01:15 | 20.94886 | -156.36179 | 6252 ft | 266 kts | 120° |
| 2026-04-24 01:15 | 20.93793 | -156.34588 | 7672 ft | 274 kts | 127° |
| 2026-04-24 01:15 | 20.92638 | -156.32902 | 8831 ft | 288 kts | 124° |
| 2026-04-24 01:16 | 20.91485 | -156.31129 | 10106 ft | 296 kts | 123° |
| 2026-04-24 01:16 | 20.90330 | -156.29291 | 10951 ft | 319 kts | 120° |
| 2026-04-24 01:16 | 20.89318 | -156.27093 | 11567 ft | 345 kts | 108° |
| 2026-04-24 01:16 | 20.88798 | -156.24566 | 12417 ft | 357 kts | 95° |
| 2026-04-24 01:17 | 20.88502 | -156.21931 | 13584 ft | 363 kts | 94° |
| 2026-04-24 01:17 | 20.88222 | -156.19248 | 14664 ft | 370 kts | 94° |
| 2026-04-24 01:17 | 20.87943 | -156.16450 | 15399 ft | 388 kts | 94° |
| 2026-04-24 01:17 | 20.87653 | -156.13486 | 15769 ft | 413 kts | 94° |
| 2026-04-24 01:18 | 20.87345 | -156.10335 | 15942 ft | 439 kts | 94° |
| 2026-04-24 01:18 | 20.87024 | -156.07106 | 15988 ft | 426 kts | 94° |
| 2026-04-24 01:18 | 20.86721 | -156.04098 | 15982 ft | 398 kts | 94° |
| 2026-04-24 01:18 | 20.86427 | -156.01165 | 15983 ft | 391 kts | 94° |
| 2026-04-24 01:19 | 20.85982 | -155.98309 | 16377 ft | 402 kts | 105° |
| 2026-04-24 01:19 | 20.84760 | -155.95621 | 17478 ft | 400 kts | 123° |
| 2026-04-24 01:19 | 20.82910 | -155.93424 | 18247 ft | 400 kts | 140° |
| 2026-04-24 01:19 | 20.80576 | -155.91774 | 18654 ft | 404 kts | 149° |
| 2026-04-24 01:20 | 20.78175 | -155.90191 | 18884 ft | 405 kts | 146° |
| 2026-04-24 01:20 | 20.75929 | -155.88370 | 19018 ft | 406 kts | 138° |
| 2026-04-24 01:20 | 20.73934 | -155.86248 | 19076 ft | 406 kts | 132° |
| 2026-04-24 01:20 | 20.72042 | -155.84010 | 19073 ft | 406 kts | 131° |
| 2026-04-24 01:21 | 20.70159 | -155.81769 | 19071 ft | 405 kts | 131° |
| 2026-04-24 01:21 | 20.68256 | -155.79551 | 19072 ft | 405 kts | 132° |
| 2026-04-24 01:21 | 20.66329 | -155.77350 | 19069 ft | 405 kts | 133° |
| 2026-04-24 01:21 | 20.64390 | -155.75162 | 19068 ft | 405 kts | 133° |
| 2026-04-24 01:22 | 20.62474 | -155.73013 | 19070 ft | 405 kts | 133° |
| 2026-04-24 01:22 | 20.60526 | -155.70834 | 19071 ft | 405 kts | 133° |
| 2026-04-24 01:22 | 20.58583 | -155.68662 | 19071 ft | 405 kts | 133° |
| 2026-04-24 01:22 | 20.56642 | -155.66491 | 19071 ft | 405 kts | 133° |
| 2026-04-24 01:23 | 20.54700 | -155.64321 | 19067 ft | 404 kts | 133° |
| 2026-04-24 01:23 | 20.52754 | -155.62147 | 19070 ft | 404 kts | 133° |
| 2026-04-24 01:23 | 20.50810 | -155.59976 | 19069 ft | 404 kts | 133° |
| 2026-04-24 01:23 | 20.48869 | -155.57809 | 19070 ft | 404 kts | 133° |
| 2026-04-24 01:24 | 20.46926 | -155.55640 | 19069 ft | 404 kts | 133° |
| 2026-04-24 01:24 | 20.44986 | -155.53476 | 19011 ft | 403 kts | 133° |
| 2026-04-24 01:24 | 20.43049 | -155.51315 | 18510 ft | 404 kts | 133° |
| 2026-04-24 01:24 | 20.41097 | -155.49141 | 17504 ft | 409 kts | 133° |
| 2026-04-24 01:25 | 20.39123 | -155.46941 | 16533 ft | 410 kts | 133° |
| 2026-04-24 01:25 | 20.37162 | -155.44757 | 15727 ft | 405 kts | 133° |
| 2026-04-24 01:25 | 20.35221 | -155.42597 | 14933 ft | 400 kts | 133° |
| 2026-04-24 01:25 | 20.33303 | -155.40463 | 14260 ft | 394 kts | 132° |
| 2026-04-24 01:26 | 20.31464 | -155.38419 | 13811 ft | 382 kts | 132° |
| 2026-04-24 01:26 | 20.29619 | -155.36367 | 13251 ft | 373 kts | 132° |
| 2026-04-24 01:26 | 20.27850 | -155.34398 | 12706 ft | 364 kts | 133° |
| 2026-04-24 01:26 | 20.26137 | -155.32492 | 12186 ft | 357 kts | 133° |
| 2026-04-24 01:27 | 20.24435 | -155.30600 | 11662 ft | 350 kts | 133° |
| 2026-04-24 01:27 | 20.22763 | -155.28743 | 11166 ft | 344 kts | 133° |
| 2026-04-24 01:27 | 20.21124 | -155.26920 | 10695 ft | 337 kts | 133° |
| 2026-04-24 01:27 | 20.19511 | -155.25124 | 10111 ft | 335 kts | 133° |
| 2026-04-24 01:28 | 20.17920 | -155.23392 | 9950 ft | 318 kts | 137° |
| 2026-04-24 01:28 | 20.16206 | -155.22002 | 9809 ft | 302 kts | 148° |
| 2026-04-24 01:28 | 20.14397 | -155.20953 | 9660 ft | 295 kts | 148° |
| 2026-04-24 01:28 | 20.12893 | -155.19463 | 9577 ft | 296 kts | 130° |
| 2026-04-24 01:29 | 20.11744 | -155.17985 | 9539 ft | 294 kts | 129° |
| 2026-04-24 01:29 | 20.10447 | -155.16312 | 9216 ft | 292 kts | 129° |
| 2026-04-24 01:29 | 20.09153 | -155.14644 | 8776 ft | 291 kts | 129° |
| 2026-04-24 01:29 | 20.07882 | -155.13005 | 8322 ft | 290 kts | 129° |
| 2026-04-24 01:30 | 20.06595 | -155.11344 | 7836 ft | 289 kts | 129° |
| 2026-04-24 01:30 | 20.05319 | -155.09699 | 7429 ft | 286 kts | 129° |
| 2026-04-24 01:30 | 20.04060 | -155.08074 | 6980 ft | 285 kts | 129° |
| 2026-04-24 01:30 | 20.02803 | -155.06453 | 6561 ft | 283 kts | 129° |
| 2026-04-24 01:31 | 20.01551 | -155.04840 | 6099 ft | 282 kts | 129° |
| 2026-04-24 01:31 | 20.00298 | -155.03239 | 5689 ft | 279 kts | 129° |
| 2026-04-24 01:31 | 19.99065 | -155.01678 | 5279 ft | 278 kts | 129° |
| 2026-04-24 01:31 | 19.97818 | -155.00116 | 4832 ft | 277 kts | 129° |
| 2026-04-24 01:32 | 19.96570 | -154.98571 | 4453 ft | 274 kts | 129° |
| 2026-04-24 01:32 | 19.95289 | -154.97082 | 4115 ft | 273 kts | 139° |
| 2026-04-24 01:32 | 19.93719 | -154.95917 | 4012 ft | 276 kts | 142° |
| 2026-04-24 01:32 | 19.92378 | -154.94504 | 3993 ft | 272 kts | 130° |
| 2026-04-24 01:33 | 19.91145 | -154.92981 | 3988 ft | 272 kts | 129° |
| 2026-04-24 01:33 | 19.89925 | -154.91446 | 3989 ft | 271 kts | 128° |
| 2026-04-24 01:33 | 19.88702 | -154.89914 | 3943 ft | 271 kts | 129° |
| 2026-04-24 01:33 | 19.87480 | -154.88396 | 3874 ft | 271 kts | 129° |
| 2026-04-24 01:34 | 19.86251 | -154.86876 | 3982 ft | 268 kts | 129° |
| 2026-04-24 01:34 | 19.85065 | -154.85419 | 3987 ft | 258 kts | 129° |
| 2026-04-24 01:34 | 19.83803 | -154.84017 | 3987 ft | 265 kts | 142° |
| 2026-04-24 01:34 | 19.82116 | -154.83271 | 3990 ft | 266 kts | 170° |
| 2026-04-24 01:35 | 19.80265 | -154.83162 | 3903 ft | 266 kts | 181° |
| 2026-04-24 01:35 | 19.78411 | -154.83264 | 3576 ft | 266 kts | 183° |
| 2026-04-24 01:35 | 19.76568 | -154.83381 | 3260 ft | 263 kts | 182° |
| 2026-04-24 01:35 | 19.74780 | -154.83463 | 3160 ft | 251 kts | 184° |
| 2026-04-24 01:36 | 19.73172 | -154.84023 | 3074 ft | 240 kts | 216° |
| 2026-04-24 01:36 | 19.72173 | -154.85319 | 2929 ft | 227 kts | 254° |
| 2026-04-24 01:36 | 19.72024 | -154.86907 | 2787 ft | 208 kts | 276° |
| 2026-04-24 01:36 | 19.72094 | -154.88390 | 2683 ft | 196 kts | 276° |
| 2026-04-24 01:37 | 19.72163 | -154.89931 | 2299 ft | 215 kts | 273° |
| 2026-04-24 01:37 | 19.72131 | -154.91515 | 1887 ft | 209 kts | 274° |
| 2026-04-24 01:37 | 19.72134 | -154.92980 | 1617 ft | 185 kts | 274° |
| 2026-04-24 01:37 | 19.72133 | -154.94230 | 1442 ft | 156 kts | 275° |
| 2026-04-24 01:38 | 19.72132 | -154.95305 | 1285 ft | 136 kts | 276° |
| 2026-04-24 01:38 | 19.72135 | -154.96336 | 1126 ft | 145 kts | 277° |
| 2026-04-24 01:38 | 19.72156 | -154.97397 | 1025 ft | 145 kts | 275° |
| 2026-04-24 01:38 | 19.72140 | -154.98467 | 857 ft | 149 kts | 273° |
| 2026-04-24 01:39 | 19.72149 | -154.99542 | 663 ft | 144 kts | 273° |
| 2026-04-24 01:39 | 19.72139 | -155.00606 | 508 ft | 143 kts | 271° |
| 2026-04-24 01:39 | 19.72142 | -155.01679 | 324 ft | 146 kts | 274° |
| 2026-04-24 01:39 | 19.72142 | -155.02738 | 122 ft | 143 kts | 273° |
| 2026-04-24 01:40 | 19.72143 | -155.03736 | 47 ft | 120 kts | 271° |
| 2026-04-24 01:40 | 19.72144 | -155.04493 | 39 ft | 89 kts | 271° |
| 2026-04-24 01:40 | 19.72118 | -155.04887 | 38 ft | 28 kts | 234° |
| 2026-04-24 01:40 | 19.72059 | -155.04912 | 38 ft | 0 kts | 188° |
| 2026-04-24 01:41 | 19.72058 | -155.04912 | 38 ft | 0 kts | 188° |
| 2026-04-24 01:42 | 19.72034 | -155.04906 | 38 ft | 10 kts | 142° |
| 2026-04-24 01:42 | 19.72012 | -155.04798 | 39 ft | 17 kts | 89° |
| 2026-04-24 01:42 | 19.72011 | -155.04669 | 39 ft | 17 kts | 90° |
| 2026-04-24 01:42 | 19.72012 | -155.04545 | 40 ft | 16 kts | 90° |
| 2026-04-24 01:43 | 19.72011 | -155.04423 | 41 ft | 19 kts | 89° |
| 2026-04-24 01:43 | 19.72011 | -155.04257 | 41 ft | 23 kts | 92° |
| 2026-04-24 01:43 | 19.72016 | -155.04120 | 42 ft | 17 kts | 113° |
| 2026-04-24 01:43 | 19.71919 | -155.04056 | 42 ft | 20 kts | 179° |
| 2026-04-24 01:44 | 19.71771 | -155.04057 | 42 ft | 22 kts | 180° |
| 2026-04-24 01:44 | 19.71664 | -155.04046 | 42 ft | 9 kts | 174° |
| 2026-04-24 01:44 | 19.71598 | -155.04040 | 42 ft | 10 kts | 179° |
| 2026-04-24 01:44 | 19.71563 | -155.04039 | 42 ft | 5 kts | 179° |
| 2026-04-24 01:45 | 19.71561 | -155.04039 | 42 ft | 0 kts | 179° |